KNSE/NSE METAR and TAF weather

Enter ICAO airport designator
Station Type Date Time Source
KNSE METAR 2018/12/11 18:56 UTC NOAA

KNSE 111856Z VRB03KT 10SM CLR 12/01 A3034 RMK AO2 SLP261 T01170011 $


Station Type Date Time Source
KNSE Decoded METAR 2018/12/11 18:56 UTC NOAA

MILTON WHITING FIELD (NORTH), FL, United States (KNSE) 30-44N 87-01W 60M
Dec 11, 2018 - 01:56 PM EST / 2018.12.11 1856 UTC
Wind: Variable at 3 MPH (3 KT):0
Visibility: 10 mile(s):0
Sky conditions: clear
Temperature: 53.1 F (11.7 C)
Dew Point: 34.0 F (1.1 C)
Relative Humidity: 48%
Pressure (altimeter): 30.34 in. Hg (1027 hPa)
ob: KNSE 111856Z VRB03KT 10SM CLR 12/01 A3034 RMK AO2 SLP261 T01170011
cycle: 19

Station Type Date Time Source
KNSE TAF 2018/12/11 15:08 UTC NOAA

TAF KNSE 1115/1215 35008KT 9999 SCT015 QNH3036INS
FM111800 34006KT 9999 SKC QNH3031INS
FM120400 VRB05KT 9999 SKC QNH3033INS
FM121100 06003KT 9999 FEW250 QNH3026INS T13/1120Z T02/1212Z FN00002


Example: see airport list